createdAt,value
2024-02-09T00:01:18.182Z,98356.00
2024-02-09T00:04:03.724Z,98345.75
2024-02-09T00:06:48.725Z,98339.75
2024-02-09T00:09:33.597Z,98350.00
2024-02-09T00:12:19.268Z,98346.63
2024-02-09T00:15:04.776Z,98341.47
2024-02-09T00:17:49.860Z,98329.50
2024-02-09T00:20:34.734Z,98337.22
2024-02-09T00:23:20.534Z,98338.06
2024-02-09T00:26:05.488Z,98322.63
2024-02-09T00:28:50.448Z,98324.25
2024-02-09T00:31:35.976Z,98325.06
2024-02-09T00:34:21.141Z,98319.06
2024-02-09T00:37:06.435Z,98313.97
2024-02-09T00:39:51.332Z,98308.03
2024-02-09T00:42:36.486Z,98305.41
2024-02-09T00:45:21.607Z,98295.91
2024-02-09T00:48:07.155Z,98283.88
2024-02-09T00:50:52.521Z,98282.97
2024-02-09T00:53:37.296Z,98280.41
2024-02-09T00:56:22.328Z,98273.56
2024-02-09T00:59:07.245Z,98275.22
2024-02-09T01:02:00.829Z,98268.25
2024-02-09T01:04:49.990Z,98267.47
2024-02-09T01:07:35.432Z,98263.19
2024-02-09T01:10:20.589Z,98260.59
2024-02-09T01:13:05.943Z,98265.69
2024-02-09T01:15:50.797Z,98268.22
2024-02-09T01:18:35.698Z,98263.88
2024-02-09T01:21:20.973Z,98269.84
2024-02-09T01:24:06.384Z,98268.94
2024-02-09T01:26:51.775Z,98263.75
2024-02-09T01:29:36.595Z,98262.06
2024-02-09T01:32:21.596Z,98259.41
2024-02-09T01:35:06.844Z,98261.09
2024-02-09T01:37:52.189Z,98257.66
2024-02-09T01:40:37.191Z,98256.78
2024-02-09T01:43:22.694Z,98254.91
2024-02-09T01:46:07.874Z,98252.25
2024-02-09T01:48:52.914Z,98257.41
2024-02-09T01:51:38.364Z,98250.47
2024-02-09T01:54:23.838Z,98249.44
2024-02-09T01:57:09.857Z,98243.41
2024-02-09T01:59:57.085Z,98248.47
2024-02-09T02:02:43.111Z,98237.22
2024-02-09T02:05:28.707Z,98226.00
2024-02-09T02:08:14.136Z,98225.09
2024-02-09T02:11:00.633Z,98218.19
2024-02-09T02:13:45.585Z,98215.59
2024-02-09T02:16:30.496Z,98217.31
2024-02-09T02:19:15.498Z,98218.22
2024-02-09T02:22:14.123Z,98209.53
2024-02-09T02:25:07.698Z,98203.50
2024-02-09T02:27:53.913Z,98194.00
2024-02-09T02:30:39.703Z,98191.50
2024-02-09T02:33:25.480Z,98187.06
2024-02-09T02:36:10.529Z,98188.00
2024-02-09T02:38:55.559Z,98190.41
2024-02-09T02:41:40.835Z,98186.94
2024-02-09T02:44:25.793Z,98185.25
2024-02-09T02:47:10.967Z,98169.78
2024-02-09T02:49:56.289Z,98170.66
2024-02-09T02:52:41.148Z,98162.97
2024-02-09T02:55:26.500Z,98151.59
2024-02-09T02:58:11.293Z,98141.44
2024-02-09T03:00:56.794Z,98130.31
2024-02-09T03:03:41.723Z,98127.88
2024-02-09T03:06:31.522Z,98116.78
2024-02-09T03:09:19.383Z,98115.78
2024-02-09T03:12:05.119Z,98102.97
2024-02-09T03:14:49.985Z,98102.91
2024-02-09T03:17:34.883Z,98102.06
2024-02-09T03:20:19.808Z,98099.31
2024-02-09T03:23:04.788Z,98094.09
2024-02-09T03:25:50.040Z,98090.78
2024-02-09T03:28:35.352Z,98082.19
2024-02-09T03:31:20.470Z,98089.91
2024-02-09T03:34:05.550Z,98074.44
2024-02-09T03:36:50.625Z,98077.00
2024-02-09T03:39:35.483Z,98083.84
2024-02-09T03:42:20.534Z,98075.34
2024-02-09T03:45:05.920Z,98067.53
2024-02-09T03:47:50.905Z,98068.34
2024-02-09T03:50:35.955Z,98070.06
2024-02-09T03:53:20.832Z,98067.38
2024-02-09T03:56:06.230Z,98061.25
2024-02-09T03:58:51.160Z,98057.84
2024-02-09T04:01:36.207Z,98064.88
2024-02-09T04:04:21.140Z,98056.41
2024-02-09T04:07:07.585Z,98053.81
2024-02-09T04:10:14.782Z,98045.16
2024-02-09T04:12:57.586Z,98042.66
2024-02-09T04:15:42.440Z,98040.22
2024-02-09T04:18:27.486Z,98035.91
2024-02-09T04:21:12.399Z,98033.34
2024-02-09T04:23:57.391Z,98028.22
2024-02-09T04:26:42.172Z,98041.97
2024-02-09T04:29:27.010Z,98049.69
2024-02-09T04:32:11.990Z,98038.47
2024-02-09T04:34:57.041Z,98037.59
2024-02-09T04:37:41.866Z,98039.25
2024-02-09T04:40:26.773Z,98045.16
2024-02-09T04:43:12.229Z,98030.63
2024-02-09T04:45:57.027Z,98040.00
2024-02-09T04:48:42.067Z,98039.19
2024-02-09T04:51:28.053Z,98031.34
2024-02-09T04:54:15.359Z,98032.31
2024-02-09T04:57:00.733Z,98025.47
2024-02-09T04:59:45.551Z,98021.94
2024-02-09T05:02:33.249Z,98025.38
2024-02-09T05:05:18.595Z,98023.63
2024-02-09T05:08:04.192Z,98017.63
2024-02-09T05:10:49.325Z,98020.19
2024-02-09T05:13:34.763Z,98013.25
2024-02-09T05:16:20.352Z,98011.56
2024-02-09T05:19:07.425Z,98010.69
2024-02-09T05:21:52.555Z,98005.53
2024-02-09T05:24:37.537Z,98008.09
2024-02-09T05:27:22.461Z,98008.09
2024-02-09T05:30:07.788Z,98005.53
2024-02-09T05:32:52.785Z,97996.09
2024-02-09T05:35:38.173Z,97996.03
2024-02-09T05:38:23.061Z,97999.53
2024-02-09T05:41:07.884Z,97999.41
2024-02-09T05:43:53.432Z,97989.22
2024-02-09T05:46:38.385Z,97980.59
2024-02-09T05:49:23.666Z,97987.53
2024-02-09T05:52:08.726Z,97990.09
2024-02-09T05:54:54.074Z,97986.63
2024-02-09T05:57:39.084Z,97982.31
2024-02-09T06:00:23.947Z,97985.66
2024-02-09T06:03:09.636Z,97983.09
2024-02-09T06:05:54.925Z,97983.91
2024-02-09T06:08:39.796Z,97983.94
2024-02-09T06:11:24.850Z,97986.50
2024-02-09T06:14:09.932Z,97983.88
2024-02-09T06:16:55.279Z,97977.88
2024-02-09T06:19:40.765Z,97972.66
2024-02-09T06:22:25.905Z,97967.56
2024-02-09T06:25:11.132Z,97969.09
2024-02-09T06:27:55.978Z,97972.50
2024-02-09T06:30:40.876Z,97970.00
2024-02-09T06:33:26.030Z,97970.69
2024-02-09T06:36:11.387Z,97976.72
2024-02-09T06:38:56.838Z,97978.53
2024-02-09T06:41:42.318Z,97979.22
2024-02-09T06:44:27.090Z,97974.91
2024-02-09T06:47:12.186Z,97981.75
2024-02-09T06:49:57.339Z,97976.53
2024-02-09T06:52:42.273Z,97979.97
2024-02-09T06:55:27.199Z,97977.47
2024-02-09T06:58:12.151Z,97972.19
2024-02-09T07:00:57.444Z,97979.03
2024-02-09T07:03:42.615Z,97979.00
2024-02-09T07:06:27.688Z,97972.03
2024-02-09T07:09:14.913Z,97969.47
2024-02-09T07:12:03.069Z,97966.00
2024-02-09T07:14:48.227Z,97974.63
2024-02-09T07:17:33.728Z,97970.25
2024-02-09T07:20:19.094Z,97959.00
2024-02-09T07:23:04.883Z,97959.00
2024-02-09T07:25:50.189Z,97968.34
2024-02-09T07:28:35.730Z,97955.38
2024-02-09T07:31:20.933Z,97956.22
2024-02-09T07:34:05.873Z,97945.00
2024-02-09T07:36:51.159Z,97939.75
2024-02-09T07:39:36.333Z,97933.69
2024-02-09T07:42:21.632Z,97931.09
2024-02-09T07:45:06.872Z,97926.69
2024-02-09T07:47:51.975Z,97916.28
2024-02-09T07:50:37.243Z,97912.81
2024-02-09T07:53:22.233Z,97905.81
2024-02-09T07:56:08.327Z,97905.75
2024-02-09T07:58:53.545Z,97905.56
2024-02-09T08:01:38.522Z,97899.59
2024-02-09T08:04:23.798Z,97896.00
2024-02-09T08:07:08.696Z,97890.75
2024-02-09T08:09:53.511Z,97884.66
2024-02-09T08:12:38.431Z,97886.25
2024-02-09T08:15:23.440Z,97884.44
2024-02-09T08:18:08.244Z,97884.28
2024-02-09T08:20:53.694Z,97890.25
2024-02-09T08:23:39.486Z,97891.03
2024-02-09T08:26:30.101Z,97880.66
2024-02-09T08:29:15.415Z,97876.34
2024-02-09T08:32:00.327Z,97873.69
2024-02-09T08:34:45.714Z,97864.06
2024-02-09T08:37:31.637Z,97871.69
2024-02-09T08:40:16.731Z,97865.50
2024-02-09T08:43:02.240Z,97858.59
2024-02-09T08:45:47.053Z,97862.97
2024-02-09T08:48:31.945Z,97853.38
2024-02-09T08:51:16.742Z,97855.75
2024-02-09T08:54:01.697Z,97856.59
2024-02-09T08:56:46.564Z,97860.84
2024-02-09T08:59:32.438Z,97852.97
2024-02-09T09:02:17.684Z,97844.25
2024-02-09T09:05:03.300Z,97840.63
2024-02-09T09:07:48.874Z,97843.94
2024-02-09T09:10:34.296Z,97840.53
2024-02-09T09:13:19.443Z,97842.91
2024-02-09T09:16:04.602Z,97842.75
2024-02-09T09:18:49.787Z,97843.69
2024-02-09T09:21:35.175Z,97837.50
2024-02-09T09:24:20.336Z,97834.88
2024-02-09T09:27:05.304Z,97839.03
2024-02-09T09:29:50.825Z,97841.59
2024-02-09T09:32:35.801Z,97845.88
2024-02-09T09:35:21.335Z,97857.22
2024-02-09T09:38:06.692Z,97852.06
2024-02-09T09:40:54.704Z,97869.28
2024-02-09T09:43:40.858Z,97875.13
2024-02-09T09:46:30.514Z,97880.31
2024-02-09T09:49:16.118Z,97890.09
2024-02-09T09:52:02.347Z,97883.09
2024-02-09T09:54:48.764Z,97897.09
2024-02-09T09:57:33.859Z,97907.38
2024-02-09T10:00:20.071Z,97903.94
2024-02-09T10:03:05.478Z,97909.13
2024-02-09T10:05:50.501Z,97909.97
2024-02-09T10:08:35.880Z,97912.47
2024-02-09T10:11:21.166Z,97909.03
2024-02-09T10:14:13.437Z,97912.25
2024-02-09T10:16:58.250Z,97904.69
2024-02-09T10:19:43.669Z,97907.25
2024-02-09T10:22:28.731Z,97919.00
2024-02-09T10:25:14.285Z,97907.59
2024-02-09T10:28:00.577Z,97901.34
2024-02-09T10:30:45.527Z,97904.72
2024-02-09T10:33:30.880Z,97905.41
2024-02-09T10:36:16.319Z,97895.84
2024-02-09T10:39:01.740Z,97900.63
2024-02-09T10:41:48.627Z,97882.19
2024-02-09T10:44:33.784Z,97876.97
2024-02-09T10:47:21.570Z,97873.25
2024-02-09T10:50:07.707Z,97868.97
2024-02-09T10:52:54.942Z,97866.78
2024-02-09T10:55:45.180Z,97863.25
2024-02-09T10:58:36.818Z,97852.59
2024-02-09T11:01:22.506Z,97844.56
2024-02-09T11:04:08.045Z,97840.22
2024-02-09T11:06:53.422Z,97833.03
2024-02-09T11:09:39.136Z,97836.47
2024-02-09T11:12:24.171Z,97824.97
2024-02-09T11:15:16.741Z,97830.63
2024-02-09T11:18:02.277Z,97814.88
2024-02-09T11:20:47.565Z,97818.78
2024-02-09T11:23:33.653Z,97808.38
2024-02-09T11:26:18.725Z,97818.59
2024-02-09T11:29:03.603Z,97807.19
2024-02-09T11:31:57.753Z,97795.53
2024-02-09T11:34:42.627Z,97803.19
2024-02-09T11:37:27.386Z,97794.06
2024-02-09T11:40:13.665Z,97786.00
2024-02-09T11:42:58.969Z,97776.47
2024-02-09T11:45:45.068Z,97777.03
2024-02-09T11:48:39.387Z,97782.50
2024-02-09T11:51:24.292Z,97777.88
2024-02-09T11:54:10.464Z,97774.22
2024-02-09T11:56:55.661Z,97770.50
2024-02-09T11:59:40.881Z,97740.09
2024-02-09T12:02:26.073Z,97741.69
2024-02-09T12:05:12.361Z,97748.72
2024-02-09T12:07:57.713Z,97745.91
2024-02-09T12:10:44.134Z,97747.00
2024-02-09T12:13:29.745Z,97753.91
2024-02-09T12:16:15.134Z,97761.81
2024-02-09T12:19:01.158Z,97760.81
2024-02-09T12:21:46.363Z,97754.81
2024-02-09T12:24:31.934Z,97766.72
2024-02-09T12:27:18.965Z,97751.63
2024-02-09T12:30:04.331Z,97748.09
2024-02-09T12:32:49.527Z,97760.31
2024-02-09T12:35:34.980Z,97776.53
2024-02-09T12:38:19.771Z,97768.28
2024-02-09T12:41:04.713Z,97788.19
2024-02-09T12:43:58.825Z,97802.34
2024-02-09T12:46:46.033Z,97822.69
2024-02-09T12:49:32.300Z,97834.00
2024-02-09T12:52:17.738Z,97839.09
2024-02-09T12:55:03.126Z,97843.34
2024-02-09T12:57:48.580Z,97851.22
2024-02-09T13:00:33.857Z,97850.91
2024-02-09T13:03:18.825Z,97858.09
2024-02-09T13:06:04.536Z,97862.56
2024-02-09T13:08:49.629Z,97864.25
2024-02-09T13:11:34.722Z,97856.78
2024-02-09T13:14:20.372Z,97864.34
2024-02-09T13:17:06.182Z,97863.34
2024-02-09T13:19:51.324Z,97865.09
2024-02-09T13:22:36.537Z,97859.06
2024-02-09T13:25:21.457Z,97863.34
2024-02-09T13:28:06.435Z,97859.84
2024-02-09T13:30:51.872Z,97859.13
2024-02-09T13:33:38.436Z,97846.78
2024-02-09T13:36:23.503Z,97864.91
2024-02-09T13:39:08.484Z,97844.91
2024-02-09T13:41:54.426Z,97841.34
2024-02-09T13:44:39.284Z,97845.69
2024-02-09T13:47:24.136Z,97834.22
2024-02-09T13:50:09.426Z,97815.09
2024-02-09T13:52:54.743Z,97808.63
2024-02-09T13:55:40.072Z,97808.19
2024-02-09T13:58:24.991Z,97816.66
2024-02-09T14:01:09.734Z,97808.56
2024-02-09T14:03:55.129Z,97799.09
2024-02-09T14:06:39.980Z,97807.63
2024-02-09T14:09:24.878Z,97797.44
2024-02-09T14:12:09.807Z,97796.63
2024-02-09T14:14:54.656Z,97797.00
2024-02-09T14:17:39.862Z,97806.19
2024-02-09T14:20:25.336Z,97813.28
2024-02-09T14:23:10.382Z,97801.56
2024-02-09T14:25:58.556Z,97811.03
2024-02-09T14:28:43.724Z,97824.69
2024-02-09T14:31:28.744Z,97819.81
2024-02-09T14:34:14.488Z,97827.28
2024-02-09T14:37:00.931Z,97835.13
2024-02-09T14:39:45.902Z,97826.25
2024-02-09T14:42:31.303Z,97827.81
2024-02-09T14:45:16.247Z,97823.66
2024-02-09T14:48:01.962Z,97816.78
2024-02-09T14:50:47.154Z,97826.41
2024-02-09T14:53:33.293Z,97825.41
2024-02-09T14:56:19.772Z,97817.56
2024-02-09T14:59:06.485Z,97830.38
2024-02-09T15:01:52.239Z,97822.47
2024-02-09T15:04:38.420Z,97820.34
2024-02-09T15:07:23.609Z,97827.44
2024-02-09T15:10:09.016Z,97826.59
2024-02-09T15:12:54.007Z,97826.59
2024-02-09T15:15:38.874Z,97833.56
2024-02-09T15:18:23.854Z,97840.88
2024-02-09T15:21:08.729Z,97843.25
2024-02-09T15:23:53.622Z,97838.41
2024-02-09T15:26:39.379Z,97847.09
2024-02-09T15:29:24.448Z,97845.22
2024-02-09T15:32:09.516Z,97841.69
2024-02-09T15:34:54.457Z,97842.09
2024-02-09T15:37:39.920Z,97850.69
2024-02-09T15:40:25.360Z,97855.97
2024-02-09T15:43:10.281Z,97867.44
2024-02-09T15:45:58.339Z,97875.31
2024-02-09T15:48:44.681Z,97877.75
2024-02-09T15:51:30.010Z,97876.84
2024-02-09T15:54:15.035Z,97881.41
2024-02-09T15:56:59.883Z,97873.75
2024-02-09T15:59:44.656Z,97867.84
2024-02-09T16:02:29.603Z,97874.53
2024-02-09T16:05:16.194Z,97864.34
2024-02-09T16:08:01.491Z,97875.03
2024-02-09T16:10:46.376Z,97880.28
2024-02-09T16:13:31.334Z,97880.31
2024-02-09T16:16:28.194Z,97880.28
2024-02-09T16:19:14.701Z,97884.75
2024-02-09T16:21:59.482Z,97885.63
2024-02-09T16:24:45.602Z,97890.91
2024-02-09T16:27:30.576Z,97883.81
2024-02-09T16:30:16.095Z,97882.88
2024-02-09T16:33:01.175Z,97883.75
2024-02-09T16:35:46.455Z,97888.16
2024-02-09T16:38:31.744Z,97886.59
2024-02-09T16:41:17.672Z,97897.13
2024-02-09T16:44:02.713Z,97899.06
2024-02-09T16:46:47.572Z,97899.72
2024-02-09T16:49:32.543Z,97900.63
2024-02-09T16:52:18.606Z,97903.25
2024-02-09T16:55:04.385Z,97894.53
2024-02-09T16:57:49.214Z,97890.22
2024-02-09T17:00:34.892Z,97890.13
2024-02-09T17:03:20.152Z,97877.09
2024-02-09T17:06:05.427Z,97881.47
2024-02-09T17:08:50.506Z,97878.00
2024-02-09T17:11:35.480Z,97885.63
2024-02-09T17:14:20.337Z,97883.09
2024-02-09T17:17:06.282Z,97875.63
2024-02-09T17:19:51.447Z,97885.91
2024-02-09T17:22:36.876Z,97880.81
2024-02-09T17:25:22.217Z,97892.81
2024-02-09T17:28:07.019Z,97897.03
2024-02-09T17:30:52.005Z,97893.78
2024-02-09T17:33:36.944Z,97896.16
2024-02-09T17:36:21.776Z,97895.66
2024-02-09T17:39:06.742Z,97909.44
2024-02-09T17:41:51.638Z,97918.84
2024-02-09T17:44:36.473Z,97905.81
2024-02-09T17:47:21.634Z,97900.72
2024-02-09T17:50:07.031Z,97899.06
2024-02-09T17:52:51.846Z,97910.06
2024-02-09T17:55:36.836Z,97904.97
2024-02-09T17:58:21.810Z,97911.13
2024-02-09T18:01:06.810Z,97901.53
2024-02-09T18:03:52.139Z,97897.38
2024-02-09T18:06:37.683Z,97890.47
2024-02-09T18:09:22.545Z,97907.69
2024-02-09T18:12:07.687Z,97901.63
2024-02-09T18:14:52.902Z,97909.53
2024-02-09T18:17:38.081Z,97914.06
2024-02-09T18:20:23.276Z,97911.53
2024-02-09T18:23:08.203Z,97913.47
2024-02-09T18:25:53.195Z,97920.44
2024-02-09T18:28:38.726Z,97920.53
2024-02-09T18:31:23.694Z,97923.66
2024-02-09T18:34:08.684Z,97921.06
2024-02-09T18:36:54.415Z,97923.66
2024-02-09T18:39:39.340Z,97926.00
2024-02-09T18:42:24.284Z,97922.81
2024-02-09T18:45:09.731Z,97918.91
2024-02-09T18:47:54.686Z,97931.28
2024-02-09T18:50:39.598Z,97945.97
2024-02-09T18:53:25.202Z,97935.44
2024-02-09T18:56:10.448Z,97941.84
2024-02-09T18:58:55.349Z,97946.22
2024-02-09T19:01:44.632Z,97954.41
2024-02-09T19:04:29.697Z,97957.13
2024-02-09T19:07:14.602Z,97958.88
2024-02-09T19:09:59.576Z,97968.28
2024-02-09T19:12:44.557Z,97964.88
2024-02-09T19:15:29.522Z,97965.16
2024-02-09T19:18:14.426Z,97953.25
2024-02-09T19:20:59.913Z,97964.34
2024-02-09T19:23:44.702Z,97956.66
2024-02-09T19:26:29.687Z,97951.97
2024-02-09T19:29:14.611Z,97961.38
2024-02-09T19:31:59.667Z,97962.78
2024-02-09T19:34:44.543Z,97962.84
2024-02-09T19:37:29.455Z,97959.63
2024-02-09T19:40:14.429Z,97962.56
2024-02-09T19:42:59.467Z,97968.78
2024-02-09T19:45:44.455Z,97973.34
2024-02-09T19:48:29.456Z,97973.03
2024-02-09T19:51:14.691Z,97975.75
2024-02-09T19:53:59.585Z,97970.69
2024-02-09T19:56:44.567Z,97980.19
2024-02-09T19:59:29.606Z,97971.66
2024-02-09T20:02:16.381Z,97980.22
2024-02-09T20:05:01.845Z,97969.84
2024-02-09T20:07:47.272Z,97980.09
2024-02-09T20:10:32.727Z,97973.34
2024-02-09T20:13:18.357Z,97977.09
2024-02-09T20:16:04.091Z,97968.44
2024-02-09T20:18:49.540Z,97969.13
2024-02-09T20:21:34.825Z,97965.59
2024-02-09T20:24:19.775Z,97967.25
2024-02-09T20:27:04.616Z,97959.59
2024-02-09T20:29:49.577Z,97966.34
2024-02-09T20:32:34.562Z,97962.34
2024-02-09T20:35:19.677Z,97963.28
2024-02-09T20:38:04.607Z,97967.44
2024-02-09T20:40:51.097Z,97961.50
2024-02-09T20:43:36.395Z,97958.84
2024-02-09T20:46:21.256Z,97965.00
2024-02-09T20:49:06.526Z,97966.78
2024-02-09T20:51:51.830Z,97965.88
2024-02-09T20:54:36.735Z,97971.53
2024-02-09T20:57:21.624Z,97968.28
2024-02-09T21:00:07.155Z,97967.44
2024-02-09T21:02:52.727Z,97969.09
2024-02-09T21:05:38.255Z,97964.75
2024-02-09T21:08:23.477Z,97959.69
2024-02-09T21:11:08.625Z,97966.63
2024-02-09T21:13:53.497Z,97960.50
2024-02-09T21:16:39.543Z,97963.78
2024-02-09T21:19:24.509Z,97963.69
2024-02-09T21:22:09.357Z,97955.31
2024-02-09T21:24:54.610Z,97959.69
2024-02-09T21:27:40.154Z,97959.53
2024-02-09T21:30:26.117Z,97958.00
2024-02-09T21:33:12.949Z,97949.38
2024-02-09T21:35:57.972Z,97951.06
2024-02-09T21:38:42.782Z,97952.59
2024-02-09T21:41:27.961Z,97940.88
2024-02-09T21:44:13.809Z,97947.34
2024-02-09T21:46:58.776Z,97943.06
2024-02-09T21:49:44.268Z,97943.31
2024-02-09T21:52:29.914Z,97950.19
2024-02-09T21:55:15.309Z,97942.50
2024-02-09T21:58:00.717Z,97940.56
2024-02-09T22:00:45.578Z,97943.84
2024-02-09T22:03:30.347Z,97938.00
2024-02-09T22:06:15.210Z,97945.09
2024-02-09T22:09:00.052Z,97949.16
2024-02-09T22:11:44.999Z,97948.31
2024-02-09T22:14:29.893Z,97946.00
2024-02-09T22:17:15.332Z,97955.34
2024-02-09T22:20:00.776Z,97950.06
2024-02-09T22:22:46.102Z,97948.91
2024-02-09T22:25:31.804Z,97952.34
2024-02-09T22:28:16.832Z,97958.31
2024-02-09T22:31:01.712Z,97954.66
2024-02-09T22:33:46.500Z,97947.44
2024-02-09T22:36:31.411Z,97960.16
2024-02-09T22:39:16.395Z,97953.16
2024-02-09T22:42:02.687Z,97951.09
2024-02-09T22:44:48.179Z,97950.75
2024-02-09T22:47:33.988Z,97946.50
2024-02-09T22:50:19.737Z,97951.59
2024-02-09T22:53:04.980Z,97956.50
2024-02-09T22:55:50.456Z,97956.94
2024-02-09T22:58:35.810Z,97963.50
2024-02-09T23:01:20.768Z,97967.47
2024-02-09T23:04:06.096Z,97960.25
2024-02-09T23:06:52.344Z,97970.66
2024-02-09T23:09:37.650Z,97965.06
2024-02-09T23:12:22.594Z,97969.34
2024-02-09T23:15:08.500Z,97979.13
2024-02-09T23:17:53.658Z,97977.41
2024-02-09T23:20:38.554Z,97981.94
2024-02-09T23:23:23.881Z,97986.78
2024-02-09T23:26:08.793Z,97986.66
2024-02-09T23:28:54.063Z,97987.50
2024-02-09T23:31:39.142Z,97995.09
2024-02-09T23:34:24.460Z,97991.47
2024-02-09T23:37:09.324Z,97989.84
2024-02-09T23:39:54.233Z,97991.84
2024-02-09T23:42:39.747Z,97993.41
2024-02-09T23:45:25.295Z,97990.28
2024-02-09T23:48:10.695Z,97995.94
2024-02-09T23:50:55.580Z,97991.59
2024-02-09T23:53:40.460Z,97992.91
2024-02-09T23:56:25.303Z,97993.16
2024-02-09T23:59:10.227Z,97996.63
